Time;durP1;ratioP1;P1;durP2;ratioP2;P2;SDS_P1;SDS_P2;PMS_P1;PMS_P2;Temp;Humidity;BMP_temperature;BMP_pressure;BME280_temperature;BME280_humidity;BME280_pressure;Samples;Min_cycle;Max_cycle;Signal;HPM_P1;HPM_P2
2021/06/01 00:01:34;;;;;;;1.00;0.80;;;10.10;99.90;;;;;;5025454;28;20202;-76
2021/06/01 00:04:00;;;;;;;1.13;1.03;;;10.10;99.90;;;;;;5024756;28;20230;-76
2021/06/01 00:06:26;;;;;;;1.53;0.90;;;10.20;99.90;;;;;;5025290;28;20189;-75
2021/06/01 00:08:52;;;;;;;1.20;0.73;;;10.20;99.90;;;;;;5025835;28;20209;-75
2021/06/01 00:11:18;;;;;;;1.10;1.00;;;10.30;99.90;;;;;;5039606;28;20684;-76
2021/06/01 00:13:44;;;;;;;0.93;0.80;;;10.30;99.90;;;;;;5025016;28;20587;-76
2021/06/01 00:16:11;;;;;;;1.17;0.93;;;10.30;99.90;;;;;;5031894;28;20183;-76
2021/06/01 00:18:37;;;;;;;1.27;0.93;;;10.30;99.90;;;;;;5040152;28;20207;-76
2021/06/01 00:21:05;;;;;;;2.20;1.10;;;10.30;99.90;;;;;;5024785;28;20656;-76
2021/06/01 00:23:33;;;;;;;1.17;1.03;;;10.20;99.90;;;;;;5024613;28;20207;-76
2021/06/01 00:25:59;;;;;;;0.83;0.83;;;9.90;99.90;;;;;;5025305;28;20179;-75
2021/06/01 00:28:24;;;;;;;1.47;0.60;;;9.80;99.90;;;;;;5025068;28;20186;-76
2021/06/01 00:30:50;;;;;;;1.27;0.80;;;9.60;99.90;;;;;;5024582;28;20193;-76
2021/06/01 00:33:15;;;;;;;1.13;1.03;;;9.60;99.90;;;;;;5023940;28;20297;-76
2021/06/01 00:35:41;;;;;;;1.53;1.10;;;9.50;99.90;;;;;;5023476;28;20187;-76
2021/06/01 00:38:07;;;;;;;1.00;0.70;;;9.30;99.90;;;;;;5024785;28;20552;-76
2021/06/01 00:40:33;;;;;;;1.10;0.87;;;9.20;99.90;;;;;;5024552;28;20563;-76
2021/06/01 00:42:59;;;;;;;1.40;0.90;;;9.10;99.90;;;;;;5023990;28;20203;-75
2021/06/01 00:45:26;;;;;;;1.33;1.00;;;9.20;99.90;;;;;;5024840;28;20179;-75
2021/06/01 00:47:52;;;;;;;1.30;0.87;;;9.20;99.90;;;;;;5024546;28;20562;-76
2021/06/01 00:50:24;;;;;;;1.80;1.20;;;9.30;99.90;;;;;;5024696;28;20194;-75
2021/06/01 00:52:51;;;;;;;1.20;0.97;;;9.30;99.90;;;;;;5024315;28;20210;-76
2021/06/01 00:55:17;;;;;;;1.27;0.90;;;9.30;99.90;;;;;;5024869;28;20178;-75
2021/06/01 00:57:43;;;;;;;0.70;0.70;;;9.40;99.90;;;;;;5024593;28;20289;-75
2021/06/01 01:00:20;;;;;;;1.07;0.90;;;9.30;99.90;;;;;;5024339;28;20278;-75
2021/06/01 01:02:47;;;;;;;0.97;0.87;;;9.30;99.90;;;;;;5023083;28;20194;-76
2021/06/01 01:05:14;;;;;;;1.17;0.80;;;9.30;99.90;;;;;;5039524;28;20581;-76
2021/06/01 01:07:46;;;;;;;0.83;0.83;;;9.30;99.90;;;;;;5024548;28;20262;-75
2021/06/01 01:10:14;;;;;;;0.97;0.73;;;9.30;99.90;;;;;;5024476;28;20175;-75
2021/06/01 01:36:16;;;;;;;0.90;0.90;;;9.30;99.90;;;;;;5024328;28;20190;-76
2021/06/01 01:38:42;;;;;;;1.00;0.87;;;9.20;99.90;;;;;;5039410;28;20206;-76
2021/06/01 01:41:14;;;;;;;1.27;1.00;;;9.30;99.90;;;;;;5038860;28;20183;-75
2021/06/01 01:43:42;;;;;;;1.83;1.20;;;9.20;99.90;;;;;;5022053;28;20353;-76
2021/06/01 01:46:22;;;;;;;2.87;1.40;;;9.20;99.90;;;;;;5067128;22;20649;-68
2021/06/01 01:51:36;;;;;;;1.43;1.00;;;9.10;99.90;;;;;;5042608;28;20174;-66
2021/06/01 01:54:11;;;;;;;3.17;1.17;;;9.10;99.90;;;;;;5057822;28;20633;-69
2021/06/01 01:56:40;;;;;;;1.20;1.10;;;9.00;99.90;;;;;;5044093;28;20186;-67
2021/06/01 01:59:13;;;;;;;1.17;0.90;;;8.90;99.90;;;;;;5046695;28;20271;-68
2021/06/01 02:01:41;;;;;;;1.33;1.23;;;8.90;99.90;;;;;;5046761;28;20265;-67
2021/06/01 02:04:09;;;;;;;1.13;1.00;;;8.90;99.90;;;;;;5047123;28;20188;-67
2021/06/01 02:06:34;;;;;;;1.17;1.07;;;8.90;99.90;;;;;;5047072;28;20590;-67
2021/06/01 02:09:01;;;;;;;1.40;1.27;;;9.00;99.90;;;;;;5046843;28;20293;-67
2021/06/01 02:11:27;;;;;;;1.30;1.20;;;8.90;99.90;;;;;;5045497;28;20186;-68
2021/06/01 02:13:58;;;;;;;1.10;1.00;;;8.90;99.90;;;;;;5047630;28;20208;-70
2021/06/01 02:16:24;;;;;;;0.80;0.70;;;8.90;99.90;;;;;;5047054;28;20186;-68
2021/06/01 02:18:50;;;;;;;0.70;0.70;;;8.80;99.90;;;;;;5046842;28;20242;-66
2021/06/01 02:21:23;;;;;;;1.13;0.90;;;8.80;99.90;;;;;;5046208;28;20264;-67
2021/06/01 02:33:56;;;;;;;0.90;0.80;;;8.60;99.90;;;;;;5046084;28;20562;-68
2021/06/01 02:36:24;;;;;;;1.23;0.90;;;8.60;99.90;;;;;;5062096;28;20235;-67
2021/06/01 02:38:50;;;;;;;1.20;1.10;;;8.60;99.90;;;;;;5046050;28;20268;-69
2021/06/01 02:41:17;;;;;;;0.83;0.83;;;8.60;99.90;;;;;;5045960;28;20557;-68
2021/06/01 02:43:43;;;;;;;1.10;1.00;;;8.50;99.90;;;;;;5061884;28;20214;-66
2021/06/01 02:46:09;;;;;;;0.93;0.87;;;8.60;99.90;;;;;;5046478;28;20283;-68
2021/06/01 02:48:35;;;;;;;2.27;1.20;;;8.50;99.90;;;;;;5046631;28;20218;-66
2021/06/01 02:51:14;;;;;;;2.10;1.30;;;8.50;99.90;;;;;;5045992;28;20190;-68
2021/06/01 02:53:50;;;;;;;2.53;1.30;;;8.50;99.90;;;;;;5046823;28;20182;-68
2021/06/01 02:56:17;;;;;;;5.27;2.30;;;8.50;99.90;;;;;;5046451;28;20221;-67
2021/06/01 02:58:44;;;;;;;5.87;2.47;;;8.50;99.90;;;;;;5046213;28;20206;-69
2021/06/01 03:01:19;;;;;;;5.27;2.77;;;8.60;99.90;;;;;;5045552;28;20260;-68
2021/06/01 03:03:53;;;;;;;2.77;1.90;;;8.50;99.90;;;;;;5046270;28;20235;-69
2021/06/01 03:06:20;;;;;;;1.60;1.20;;;8.50;99.90;;;;;;5045883;28;20540;-68
2021/06/01 03:08:47;;;;;;;1.67;1.10;;;8.50;99.90;;;;;;5044526;28;20264;-67
2021/06/01 03:11:15;;;;;;;4.03;1.27;;;8.50;99.90;;;;;;5045556;28;20190;-68
2021/06/01 03:13:41;;;;;;;2.43;1.70;;;8.50;99.90;;;;;;5045596;28;20188;-67
2021/06/01 03:16:07;;;;;;;1.73;1.30;;;8.60;99.90;;;;;;5045843;28;20186;-68
2021/06/01 03:18:34;;;;;;;2.43;1.17;;;8.70;99.90;;;;;;5062208;28;20581;-67
2021/06/01 03:20:59;;;;;;;1.33;1.00;;;8.70;99.90;;;;;;5046123;28;20531;-68
2021/06/01 03:23:26;;;;;;;1.53;1.40;;;8.70;99.90;;;;;;5047037;28;20190;-66
2021/06/01 03:25:52;;;;;;;2.27;1.00;;;8.70;99.90;;;;;;5048068;28;20213;-67
2021/06/01 03:28:19;;;;;;;1.40;1.00;;;8.60;99.90;;;;;;5062949;28;20242;-67
2021/06/01 03:30:45;;;;;;;1.07;0.93;;;8.60;99.90;;;;;;5047518;28;20562;-69
2021/06/01 03:33:11;;;;;;;1.80;1.00;;;8.60;99.90;;;;;;5063459;28;20649;-67
2021/06/01 03:35:37;;;;;;;1.00;0.90;;;8.60;99.90;;;;;;5048803;28;20194;-67
2021/06/01 03:38:03;;;;;;;0.97;0.93;;;8.70;99.90;;;;;;5048416;28;20206;-68
2021/06/01 03:40:29;;;;;;;1.20;1.10;;;9.00;99.90;;;;;;5048219;28;20618;-68
2021/06/01 03:42:55;;;;;;;1.23;0.93;;;9.00;99.90;;;;;;5047659;28;20194;-68
2021/06/01 03:45:23;;;;;;;1.20;1.10;;;9.00;99.90;;;;;;5048483;28;20194;-68
2021/06/01 03:47:48;;;;;;;1.13;1.03;;;9.10;99.90;;;;;;5063831;28;20629;-67
2021/06/01 03:50:14;;;;;;;1.30;1.20;;;9.10;99.90;;;;;;5048322;28;20232;-67
2021/06/01 03:52:40;;;;;;;0.93;0.80;;;9.10;99.90;;;;;;5047388;28;20189;-69
2021/06/01 03:55:07;;;;;;;1.53;1.07;;;9.20;99.90;;;;;;5048202;28;20186;-68
2021/06/01 03:57:33;;;;;;;2.07;1.10;;;9.20;99.90;;;;;;5048015;28;20220;-67
2021/06/01 03:59:59;;;;;;;1.37;1.20;;;9.20;99.90;;;;;;5048350;28;20903;-66
2021/06/01 04:02:25;;;;;;;1.20;1.00;;;9.20;99.90;;;;;;5047506;28;20193;-68
2021/06/01 04:04:51;;;;;;;1.10;1.00;;;9.10;99.90;;;;;;5048225;28;20309;-70
2021/06/01 04:07:17;;;;;;;1.13;1.00;;;9.00;99.90;;;;;;5047781;28;20190;-67
2021/06/01 04:09:43;;;;;;;1.07;0.97;;;8.90;99.90;;;;;;5047622;28;20214;-69
2021/06/01 04:12:10;;;;;;;1.07;0.90;;;8.90;99.90;;;;;;5047091;28;20713;-67
2021/06/01 04:14:36;;;;;;;1.07;0.97;;;8.90;99.90;;;;;;5044861;28;20214;-67
2021/06/01 04:17:02;;;;;;;0.90;0.80;;;9.00;99.90;;;;;;5045638;28;20731;-69
2021/06/01 04:19:28;;;;;;;1.53;1.20;;;9.00;99.90;;;;;;5044381;28;20212;-66
2021/06/01 04:21:53;;;;;;;1.27;0.87;;;9.20;99.90;;;;;;5044770;28;20182;-67
2021/06/01 04:24:26;;;;;;;1.60;1.20;;;9.60;99.90;;;;;;5045661;28;20212;-68
2021/06/01 04:26:52;;;;;;;0.80;0.80;;;10.60;99.90;;;;;;5045650;28;20205;-68
2021/06/01 04:29:18;;;;;;;0.77;0.75;;;11.70;99.90;;;;;;5045328;28;20549;-69
2021/06/01 04:31:43;;;;;;;1.70;0.85;;;12.80;99.90;;;;;;5044117;28;20510;-68
2021/06/01 04:34:09;;;;;;;0.82;0.80;;;14.10;99.90;;;;;;5044711;28;20193;-67
2021/06/01 04:36:35;;;;;;;1.20;1.10;;;15.20;99.90;;;;;;5044447;28;20274;-68
2021/06/01 04:39:00;;;;;;;1.10;1.00;;;16.20;99.90;;;;;;5059395;28;20210;-69
2021/06/01 04:41:26;;;;;;;1.30;1.20;;;16.90;99.90;;;;;;5043458;28;20182;-70
2021/06/01 04:43:52;;;;;;;1.40;1.17;;;17.40;99.90;;;;;;5044247;28;20221;-68
2021/06/01 04:46:17;;;;;;;1.33;1.15;;;17.80;99.90;;;;;;5044099;28;20213;-68
2021/06/01 04:48:43;;;;;;;1.52;1.20;;;18.10;99.90;;;;;;5044059;28;20193;-69
2021/06/01 04:51:16;;;;;;;1.55;1.00;;;18.20;99.90;;;;;;5043338;28;20534;-68
2021/06/01 04:53:52;;;;;;;1.63;1.25;;;18.50;99.90;;;;;;5044035;28;20260;-70
2021/06/01 04:56:19;;;;;;;1.80;1.30;;;18.90;99.90;;;;;;5044087;28;20657;-69
2021/06/01 04:58:45;;;;;;;1.30;1.20;;;19.20;99.90;;;;;;5043836;28;20289;-68
2021/06/01 05:01:10;;;;;;;1.50;1.30;;;19.50;99.90;;;;;;5043500;28;20178;-68
2021/06/01 05:03:37;;;;;;;2.45;1.20;;;19.70;99.90;;;;;;5044808;28;20189;-70
2021/06/01 05:06:03;;;;;;;1.13;1.02;;;19.60;99.90;;;;;;5044206;28;20268;-70
2021/06/01 05:08:29;;;;;;;1.77;1.10;;;19.70;99.90;;;;;;5059170;28;20208;-69
2021/06/01 05:10:54;;;;;;;1.77;1.38;;;20.30;99.90;;;;;;5043408;28;20182;-69
2021/06/01 05:13:20;;;;;;;0.98;0.90;;;20.60;99.90;;;;;;5043636;28;20236;-69
2021/06/01 05:15:48;;;;;;;1.40;1.25;;;20.80;99.90;;;;;;5043601;28;20189;-69
2021/06/01 05:18:14;;;;;;;1.45;1.20;;;21.10;99.90;;;;;;5043535;28;20635;-68
2021/06/01 05:20:40;;;;;;;1.20;1.10;;;21.00;99.90;;;;;;5043016;28;20692;-69
2021/06/01 05:23:06;;;;;;;1.63;1.10;;;21.20;99.90;;;;;;5043762;28;20502;-70
2021/06/01 05:25:31;;;;;;;1.15;1.00;;;21.80;98.90;;;;;;5043286;28;20186;-71
2021/06/01 05:27:58;;;;;;;1.52;1.10;;;21.90;98.00;;;;;;5043356;28;20187;-69
2021/06/01 05:30:31;;;;;;;1.42;1.23;;;22.20;97.60;;;;;;5043463;28;20232;-69
2021/06/01 05:35:32;;;;;;;1.80;1.20;;;22.80;96.10;;;;;;5047682;28;20185;-70
2021/06/01 05:38:01;;;;;;;2.00;1.40;;;22.80;95.70;;;;;;5046585;28;20202;-69
2021/06/01 05:40:27;;;;;;;3.10;1.48;;;22.90;96.00;;;;;;5041203;28;20179;-69
2021/06/01 05:42:53;;;;;;;1.52;1.42;;;22.70;95.80;;;;;;5047182;28;20182;-72
2021/06/01 05:45:18;;;;;;;1.33;1.23;;;22.60;96.80;;;;;;5062867;28;20569;-70
2021/06/01 05:47:44;;;;;;;1.30;1.20;;;22.90;96.50;;;;;;5047161;28;20178;-69
2021/06/01 05:50:10;;;;;;;1.58;1.30;;;23.20;95.70;;;;;;5046978;28;20668;-70
2021/06/01 05:52:36;;;;;;;1.40;1.30;;;23.00;95.60;;;;;;5046126;28;20272;-68
2021/06/01 05:55:04;;;;;;;1.35;1.10;;;23.10;96.20;;;;;;5047204;28;20183;-69
2021/06/01 05:57:29;;;;;;;3.13;1.48;;;23.20;95.80;;;;;;5047591;28;20206;-70
2021/06/01 05:59:55;;;;;;;3.05;1.75;;;23.20;96.00;;;;;;5046689;28;20198;-72
2021/06/01 06:02:20;;;;;;;2.25;1.52;;;23.10;94.70;;;;;;5046484;28;20658;-70
2021/06/01 06:04:46;;;;;;;1.60;1.20;;;23.50;93.40;;;;;;5047187;28;20548;-69
2021/06/01 06:07:12;;;;;;;6.40;2.15;;;23.70;92.80;;;;;;5047087;28;20719;-69
2021/06/01 06:09:37;;;;;;;1.50;1.40;;;23.50;92.30;;;;;;5047274;28;20217;-69
2021/06/01 06:12:03;;;;;;;2.80;1.60;;;23.20;92.80;;;;;;5044791;28;20185;-68
2021/06/01 06:14:29;;;;;;;2.17;1.83;;;23.50;92.80;;;;;;5047074;28;20287;-68
2021/06/01 06:16:59;;;;;;;1.75;1.60;;;23.80;91.00;;;;;;5046568;28;20182;-70
2021/06/01 06:19:25;;;;;;;1.60;1.40;;;23.90;91.40;;;;;;5046466;28;20206;-70
2021/06/01 06:21:50;;;;;;;1.80;1.42;;;23.80;91.30;;;;;;5045291;28;20558;-68
2021/06/01 06:24:16;;;;;;;3.53;1.92;;;23.50;92.40;;;;;;5045518;28;20178;-69
2021/06/01 06:26:42;;;;;;;2.05;1.58;;;23.50;91.80;;;;;;5046343;28;20273;-69
2021/06/01 06:29:07;;;;;;;2.25;1.45;;;23.40;91.80;;;;;;5045587;28;20217;-69
2021/06/01 06:31:33;;;;;;;2.78;1.63;;;23.70;91.40;;;;;;5045381;28;20197;-69
2021/06/01 06:34:00;;;;;;;1.85;1.40;;;23.60;91.50;;;;;;5046782;28;20713;-69
2021/06/01 06:36:26;;;;;;;3.00;1.80;;;23.10;92.30;;;;;;5046651;28;20178;-69
2021/06/01 06:38:51;;;;;;;4.35;1.80;;;22.80;93.90;;;;;;5044979;28;20715;-68
2021/06/01 06:41:18;;;;;;;3.55;2.15;;;22.10;94.40;;;;;;5045871;28;20182;-68
2021/06/01 06:43:54;;;;;;;3.40;2.15;;;21.40;96.40;;;;;;5046387;28;20217;-69
2021/06/01 06:46:41;;;;;;;3.22;1.63;;;21.00;98.70;;;;;;5046443;28;20196;-69
2021/06/01 06:49:08;;;;;;;1.95;1.60;;;20.60;99.90;;;;;;5046154;28;20197;-68
2021/06/01 06:51:33;;;;;;;3.08;1.85;;;20.30;99.90;;;;;;5045452;28;20640;-69
2021/06/01 06:54:02;;;;;;;3.42;1.95;;;20.20;99.90;;;;;;5047107;28;20190;-69
2021/06/01 06:56:30;;;;;;;2.75;1.63;;;20.10;99.90;;;;;;5050862;28;20247;-68
2021/06/01 06:58:58;;;;;;;2.03;1.80;;;20.10;99.90;;;;;;5046263;28;20213;-69
2021/06/01 07:01:24;;;;;;;2.45;2.08;;;20.00;99.90;;;;;;5046680;28;20261;-69
2021/06/01 07:03:52;;;;;;;1.83;1.58;;;20.20;99.90;;;;;;5047263;28;20174;-68
2021/06/01 07:06:18;;;;;;;3.00;1.90;;;20.20;99.90;;;;;;5047448;28;20188;-68
2021/06/01 07:08:44;;;;;;;2.90;1.90;;;20.20;99.90;;;;;;5048084;28;20202;-68
2021/06/01 07:11:10;;;;;;;3.08;1.92;;;20.10;99.90;;;;;;5046611;28;20197;-69
2021/06/01 07:13:44;;;;;;;2.63;1.35;;;20.00;99.90;;;;;;5047868;28;20181;-68
2021/06/01 07:16:11;;;;;;;2.63;1.70;;;19.90;99.90;;;;;;5048204;28;20180;-67
2021/06/01 07:18:39;;;;;;;2.63;2.10;;;19.80;99.90;;;;;;5047631;28;20222;-67
2021/06/01 07:21:06;;;;;;;3.90;1.85;;;20.10;99.90;;;;;;5044169;28;20273;-71
2021/06/01 07:23:33;;;;;;;1.90;1.67;;;20.30;99.90;;;;;;5045847;28;20221;-66
2021/06/01 07:25:59;;;;;;;2.15;1.95;;;20.50;99.90;;;;;;5045668;28;20729;-67
2021/06/01 07:28:24;;;;;;;1.77;1.55;;;20.70;99.90;;;;;;5045061;28;20206;-70
2021/06/01 07:30:51;;;;;;;3.03;1.90;;;20.60;99.90;;;;;;5045069;28;20641;-67
2021/06/01 07:33:16;;;;;;;2.47;1.92;;;20.50;99.90;;;;;;5044996;28;20201;-71
2021/06/01 07:35:42;;;;;;;3.15;1.98;;;20.80;99.90;;;;;;5045041;28;20178;-69
2021/06/01 07:38:10;;;;;;;4.10;2.00;;;21.00;99.90;;;;;;5044839;28;20465;-70
2021/06/01 07:40:38;;;;;;;2.30;1.55;;;21.40;99.90;;;;;;5045757;28;20303;-68
2021/06/01 07:43:04;;;;;;;1.77;1.63;;;21.60;99.90;;;;;;5045361;28;20175;-67
2021/06/01 07:45:29;;;;;;;3.72;2.17;;;21.60;99.90;;;;;;5045155;28;20204;-69
2021/06/01 07:47:55;;;;;;;3.17;1.60;;;21.70;99.90;;;;;;5045488;28;20183;-68
2021/06/01 07:50:21;;;;;;;1.73;1.58;;;21.60;99.90;;;;;;5045481;28;20213;-68
2021/06/01 07:52:46;;;;;;;1.92;1.77;;;21.80;99.90;;;;;;5045332;28;20186;-67
2021/06/01 07:55:12;;;;;;;4.20;1.88;;;22.00;99.90;;;;;;5043956;28;20192;-67
2021/06/01 07:57:38;;;;;;;2.25;2.05;;;22.00;99.90;;;;;;5045216;28;20274;-68
2021/06/01 08:00:06;;;;;;;2.08;1.50;;;22.20;99.90;;;;;;5045294;28;20311;-69
2021/06/01 08:02:32;;;;;;;1.90;1.70;;;22.30;99.90;;;;;;5044572;28;20567;-68
2021/06/01 08:04:57;;;;;;;2.50;1.80;;;22.30;99.90;;;;;;5041919;28;20769;-67
2021/06/01 08:07:23;;;;;;;2.67;1.52;;;22.30;99.90;;;;;;5042976;28;20185;-68
2021/06/01 08:09:49;;;;;;;2.13;1.48;;;22.30;99.90;;;;;;5043356;28;20202;-67
2021/06/01 08:12:15;;;;;;;2.70;1.80;;;22.30;99.90;;;;;;5043247;28;20621;-69
2021/06/01 08:14:41;;;;;;;1.98;1.73;;;22.30;99.90;;;;;;5043747;28;20179;-65
2021/06/01 08:17:07;;;;;;;1.85;1.60;;;22.20;99.90;;;;;;5058403;28;20174;-65
2021/06/01 08:19:38;;;;;;;2.47;1.92;;;22.20;99.90;;;;;;5041314;28;20206;-66
2021/06/01 08:24:30;;;;;;;3.28;1.73;;;22.00;99.90;;;;;;5043096;28;20569;-66
2021/06/01 08:26:56;;;;;;;2.15;1.52;;;21.80;99.90;;;;;;5043187;28;20703;-68
2021/06/01 08:29:22;;;;;;;2.10;1.90;;;21.90;99.90;;;;;;5041440;28;20214;-68
2021/06/01 08:31:48;;;;;;;2.00;1.60;;;22.00;99.90;;;;;;5040215;28;20194;-68
2021/06/01 08:34:14;;;;;;;2.30;1.70;;;22.20;99.90;;;;;;5042385;28;20206;-67
2021/06/01 08:36:40;;;;;;;2.42;1.58;;;22.30;99.90;;;;;;5044251;28;20293;-68
2021/06/01 08:39:07;;;;;;;2.15;1.95;;;22.30;99.90;;;;;;5043272;28;20554;-68
2021/06/01 08:41:34;;;;;;;2.33;2.00;;;22.40;99.90;;;;;;5040262;28;20182;-68
2021/06/01 08:44:02;;;;;;;2.40;1.85;;;22.50;99.90;;;;;;5041334;28;20201;-68
2021/06/01 08:46:28;;;;;;;2.20;1.90;;;22.70;99.90;;;;;;5042867;28;20198;-68
2021/06/01 08:48:55;;;;;;;3.03;2.00;;;22.60;99.90;;;;;;5038166;28;21292;-68
2021/06/01 08:51:22;;;;;;;1.98;1.77;;;22.30;99.90;;;;;;5042647;28;20238;-68
2021/06/01 08:53:49;;;;;;;1.65;1.55;;;22.00;99.90;;;;;;5042309;28;20192;-69
2021/06/01 08:56:16;;;;;;;3.63;1.80;;;22.10;99.90;;;;;;5052493;28;20649;-68
2021/06/01 08:58:44;;;;;;;2.28;1.60;;;22.40;99.90;;;;;;5039735;28;20263;-69
2021/06/01 09:01:10;;;;;;;1.23;1.08;;;22.80;99.90;;;;;;5042484;28;20202;-67
2021/06/01 09:03:41;;;;;;;3.55;1.65;;;23.20;99.90;;;;;;5041953;28;20189;-67
2021/06/01 09:11:31;;;;;;;2.13;1.92;;;23.50;99.90;;;;;;5041118;28;20642;-67
2021/06/01 09:14:38;;;;;;;2.05;1.55;;;23.40;99.90;;;;;;5044135;28;20216;-67
2021/06/01 09:22:58;;;;;;;1.60;1.50;;;23.80;98.40;;;;;;5042632;28;20209;-68
2021/06/01 09:27:57;;;;;;;1.98;1.50;;;23.80;97.20;;;;;;5043584;28;20552;-69
2021/06/01 09:30:41;;;;;;;2.13;1.67;;;23.80;96.80;;;;;;5044166;28;20197;-69
2021/06/01 09:33:28;;;;;;;4.40;1.85;;;23.90;97.30;;;;;;5043737;28;20181;-69
2021/06/01 09:35:56;;;;;;;2.25;1.75;;;24.00;96.70;;;;;;5058362;28;20197;-69
2021/06/01 09:38:25;;;;;;;1.67;1.58;;;23.90;96.70;;;;;;5043573;28;20206;-71
2021/06/01 09:41:08;;;;;;;2.03;1.80;;;23.90;97.20;;;;;;5043199;28;20185;-69
2021/06/01 09:43:48;;;;;;;2.00;1.75;;;24.00;96.20;;;;;;5043639;28;20178;-68
2021/06/01 09:46:25;;;;;;;1.73;1.45;;;23.90;95.20;;;;;;5043512;28;20626;-68
2021/06/01 09:48:52;;;;;;;1.88;1.65;;;23.70;96.30;;;;;;5043252;28;20560;-67
2021/06/01 09:51:33;;;;;;;1.92;1.70;;;23.80;96.80;;;;;;5043174;28;20257;-67
2021/06/01 09:54:32;;;;;;;1.60;1.50;;;24.10;97.70;;;;;;5043451;28;20261;-67
2021/06/01 09:56:59;;;;;;;2.42;1.88;;;24.50;96.60;;;;;;5035488;28;20284;-68
2021/06/01 09:59:25;;;;;;;1.90;1.58;;;24.70;96.00;;;;;;5043347;28;20221;-67
2021/06/01 10:01:50;;;;;;;2.33;2.13;;;24.80;95.00;;;;;;5042860;28;20170;-68
2021/06/01 10:04:27;;;;;;;1.80;1.48;;;25.10;94.90;;;;;;5043823;28;20185;-67
2021/06/01 10:06:54;;;;;;;2.10;1.77;;;24.90;94.90;;;;;;5043774;28;20182;-68
2021/06/01 10:09:20;;;;;;;2.72;1.67;;;25.10;95.50;;;;;;5043333;28;20572;-67
2021/06/01 10:11:59;;;;;;;2.00;1.73;;;25.30;94.30;;;;;;5043353;28;20182;-68
2021/06/01 10:14:26;;;;;;;2.35;1.92;;;25.20;94.50;;;;;;5043838;28;20216;-68
2021/06/01 10:16:52;;;;;;;2.10;1.90;;;25.60;94.90;;;;;;5043737;28;20595;-68
2021/06/01 10:19:18;;;;;;;1.80;1.70;;;25.70;93.80;;;;;;5046558;28;20269;-68
2021/06/01 10:21:45;;;;;;;1.92;1.80;;;25.60;94.10;;;;;;5047247;28;20598;-67
2021/06/01 10:24:15;;;;;;;3.88;1.80;;;26.00;93.40;;;;;;5046400;28;20182;-66
2021/06/01 10:26:44;;;;;;;1.42;1.33;;;26.00;93.30;;;;;;5047175;28;20244;-66
2021/06/01 10:29:09;;;;;;;3.10;1.80;;;26.40;93.70;;;;;;5046859;28;20207;-66
2021/06/01 10:31:36;;;;;;;1.67;1.58;;;26.60;92.10;;;;;;5046751;28;20536;-67
2021/06/01 10:34:03;;;;;;;2.95;2.15;;;26.70;91.80;;;;;;5047284;28;20194;-66
2021/06/01 10:50:41;;;;;;;2.42;1.85;;;25.10;91.00;;;;;;5044345;28;20267;-66
2021/06/01 10:53:12;;;;;;;2.50;2.20;;;25.20;90.10;;;;;;5045040;28;20205;-68
2021/06/01 10:56:03;;;;;;;2.80;1.77;;;25.50;91.00;;;;;;5045302;28;20179;-67
2021/06/01 10:58:36;;;;;;;3.25;2.10;;;25.70;91.00;;;;;;5044945;28;20206;-68
2021/06/01 11:04:26;;;;;;;2.25;1.92;;;26.10;88.00;;;;;;5044941;28;20197;-68
2021/06/01 11:09:34;;;;;;;1.90;1.80;;;26.10;90.50;;;;;;5044741;28;20312;-68
2021/06/01 11:12:18;;;;;;;2.40;1.88;;;26.00;89.90;;;;;;5044457;28;20201;-67
2021/06/01 11:14:45;;;;;;;2.47;2.08;;;26.20;89.00;;;;;;5045139;28;20629;-67
2021/06/01 11:17:11;;;;;;;2.00;1.80;;;26.00;88.60;;;;;;5045468;28;20727;-67
2021/06/01 11:19:49;;;;;;;2.42;1.75;;;25.90;89.50;;;;;;5045529;28;20736;-69
2021/06/01 11:22:34;;;;;;;2.08;1.98;;;26.00;88.80;;;;;;5045130;28;20308;-68
2021/06/01 11:35:43;;;;;;;2.03;1.83;;;26.20;86.10;;;;;;5044441;28;20194;-68
2021/06/01 11:43:28;;;;;;;2.55;1.88;;;26.70;85.20;;;;;;5044027;28;20198;-69
2021/06/01 11:46:14;;;;;;;2.08;1.88;;;26.70;84.30;;;;;;5005724;28;1090332;-68
2021/06/01 11:51:28;;;;;;;3.55;1.50;;;26.40;83.70;;;;;;5043898;28;20192;-67
2021/06/01 11:53:57;;;;;;;1.90;1.60;;;26.40;84.80;;;;;;5044488;28;20190;-68
2021/06/01 11:56:57;;;;;;;2.72;1.90;;;26.30;84.70;;;;;;5044765;28;20651;-69
2021/06/01 12:05:19;;;;;;;2.13;1.92;;;26.20;85.00;;;;;;5044567;28;20185;-69
2021/06/01 12:19:05;;;;;;;2.20;2.00;;;25.20;86.20;;;;;;5044746;28;20308;-68
2021/06/01 12:21:38;;;;;;;2.05;1.60;;;25.10;87.40;;;;;;5059787;28;20179;-67
2021/06/01 12:24:15;;;;;;;2.03;1.52;;;25.10;85.90;;;;;;5043249;28;20224;-67
2021/06/01 12:27:00;;;;;;;2.97;1.90;;;25.10;85.90;;;;;;5044498;28;20188;-66
2021/06/01 12:34:59;;;;;;;2.63;1.90;;;25.50;87.80;;;;;;5044607;28;20184;-66
2021/06/01 13:19:50;;;;;;;1.77;1.67;;;26.50;85.50;;;;;;5043927;28;20296;-68
2021/06/01 13:40:08;;;;;;;2.22;1.70;;;26.50;84.70;;;;;;5043599;28;20609;-68
2021/06/01 13:48:44;;;;;;;1.88;1.67;;;25.90;86.90;;;;;;5043434;28;20480;-70
2021/06/01 13:56:05;;;;;;;2.33;1.70;;;26.60;81.60;;;;;;5047502;28;20190;-67
2021/06/01 14:01:25;;;;;;;2.15;1.83;;;26.30;80.90;;;;;;5047477;28;20265;-67
2021/06/01 14:20:49;;;;;;;2.33;1.77;;;25.50;76.80;;;;;;5048174;28;20208;-66
2021/06/01 14:31:29;;;;;;;2.10;1.80;;;25.80;76.40;;;;;;5050029;28;20202;-68
2021/06/01 14:56:50;;;;;;;2.20;1.73;;;25.70;71.20;;;;;;5046242;28;20220;-67
2021/06/01 15:50:40;;;;;;;2.10;1.90;;;24.60;75.50;;;;;;5045395;28;20194;-69
2021/06/01 16:23:41;;;;;;;4.18;2.35;;;25.50;74.70;;;;;;5045299;28;20197;-66
2021/06/01 16:31:42;;;;;;;1.98;1.77;;;24.90;79.30;;;;;;5043733;28;20189;-66
2021/06/01 17:07:06;;;;;;;1.88;1.55;;;24.10;74.50;;;;;;5043782;28;20185;-69
2021/06/01 17:12:29;;;;;;;1.88;1.60;;;23.90;78.50;;;;;;5043527;28;20269;-67
2021/06/01 17:14:56;;;;;;;2.28;1.83;;;23.70;78.60;;;;;;5043735;28;20448;-68
2021/06/01 17:17:27;;;;;;;2.67;1.92;;;23.70;77.80;;;;;;5043614;28;20182;-67
2021/06/01 17:20:31;;;;;;;2.72;1.80;;;23.50;76.50;;;;;;5043630;28;20735;-68
2021/06/01 17:36:12;;;;;;;1.58;1.48;;;23.40;77.10;;;;;;5043688;28;20217;-68
2021/06/01 17:38:38;;;;;;;1.55;1.45;;;23.30;77.70;;;;;;5043325;28;20699;-68
2021/06/01 17:41:08;;;;;;;2.15;1.67;;;23.30;79.30;;;;;;5042875;28;20182;-66
2021/06/01 17:43:35;;;;;;;1.70;1.60;;;23.20;81.10;;;;;;5043446;28;20225;-69
2021/06/01 17:46:05;;;;;;;2.20;1.50;;;23.10;83.40;;;;;;5043806;28;20518;-66
2021/06/01 17:48:37;;;;;;;2.55;1.90;;;22.90;81.50;;;;;;5042991;28;20649;-66
2021/06/01 17:51:07;;;;;;;1.90;1.60;;;22.60;83.10;;;;;;5042916;28;20651;-67
2021/06/01 17:53:41;;;;;;;2.05;1.60;;;22.50;83.40;;;;;;5043261;28;20272;-68
2021/06/01 17:56:07;;;;;;;2.05;1.40;;;22.40;84.40;;;;;;5043452;28;20210;-66
2021/06/01 17:58:33;;;;;;;1.95;1.25;;;22.20;85.20;;;;;;5043008;28;20233;-68
2021/06/01 18:00:59;;;;;;;1.40;1.30;;;22.30;87.40;;;;;;5042837;28;20190;-67
2021/06/01 18:03:25;;;;;;;4.32;2.50;;;22.20;88.50;;;;;;5043248;28;20167;-68
2021/06/01 18:05:53;;;;;;;1.95;1.70;;;22.20;87.70;;;;;;5043164;28;20175;-68
2021/06/01 19:43:16;;;;;;;1.48;1.10;;;19.00;99.90;;;;;;5044901;28;20177;-66
2021/06/01 19:50:23;;;;;;;1.35;1.00;;;18.80;99.90;;;;;;5044313;28;20177;-66
2021/06/01 19:52:52;;;;;;;0.98;0.75;;;18.70;99.00;;;;;;5044846;28;20186;-68
2021/06/01 19:55:19;;;;;;;0.50;0.50;;;18.60;97.60;;;;;;5045425;28;20182;-67
2021/06/01 19:57:47;;;;;;;0.60;0.60;;;18.60;96.40;;;;;;5044871;28;20655;-67
2021/06/01 20:00:13;;;;;;;1.25;0.70;;;18.50;94.20;;;;;;5060667;28;20243;-66
2021/06/01 20:02:40;;;;;;;0.55;0.55;;;18.50;93.60;;;;;;5060250;28;20662;-66
2021/06/01 20:05:09;;;;;;;0.85;0.60;;;18.50;92.70;;;;;;5045974;28;20551;-65
2021/06/01 20:07:35;;;;;;;1.55;0.73;;;18.40;91.80;;;;;;5045162;28;20264;-68
2021/06/01 20:10:01;;;;;;;0.40;0.40;;;18.40;91.80;;;;;;5045285;28;20727;-67
2021/06/01 20:12:27;;;;;;;0.82;0.40;;;18.30;92.10;;;;;;5044629;28;20266;-67
2021/06/01 20:14:54;;;;;;;2.88;0.60;;;18.20;93.80;;;;;;5045606;28;20178;-67
2021/06/01 20:17:41;;;;;;;0.60;0.60;;;18.10;97.30;;;;;;5044746;28;20186;-66
2021/06/01 20:20:16;;;;;;;1.15;1.05;;;17.90;99.90;;;;;;5045232;28;20336;-66
2021/06/01 20:22:50;;;;;;;3.35;1.27;;;17.90;99.90;;;;;;5044425;28;20174;-67
2021/06/01 20:25:17;;;;;;;1.20;1.02;;;17.80;99.90;;;;;;5045057;28;20667;-67
2021/06/01 20:27:47;;;;;;;0.82;0.80;;;17.80;99.90;;;;;;5044841;28;20544;-68
2021/06/01 20:30:26;;;;;;;0.88;0.80;;;17.70;99.90;;;;;;5045194;28;20198;-67
2021/06/01 20:33:09;;;;;;;1.38;0.88;;;17.60;99.90;;;;;;5059420;28;20181;-66
2021/06/01 20:35:40;;;;;;;1.27;0.85;;;17.50;99.90;;;;;;5044936;28;20585;-67
2021/06/01 20:38:08;;;;;;;0.70;0.65;;;17.50;99.90;;;;;;5044768;28;20202;-68
2021/06/01 20:40:34;;;;;;;1.40;1.10;;;17.50;99.90;;;;;;5044641;28;20178;-67
2021/06/01 20:43:02;;;;;;;1.10;1.00;;;17.40;99.90;;;;;;5044113;28;20170;-68
2021/06/01 20:45:30;;;;;;;0.90;0.85;;;17.30;99.90;;;;;;5044741;28;20197;-68
2021/06/01 20:47:59;;;;;;;1.20;1.10;;;17.30;99.90;;;;;;5044578;28;20209;-67
2021/06/01 20:50:26;;;;;;;1.25;1.15;;;17.20;99.90;;;;;;5044632;28;20186;-68
2021/06/01 20:52:52;;;;;;;3.13;1.27;;;17.20;99.90;;;;;;5044093;28;20239;-69